Bladensburg, MD (20710)

2:08 AM EST on February 13, 2016 (GMT -0500)
Riverdale Park | | Change Station
CLOSE
Current Station
Personal Weather Station
Location: Riverdale, MD
Elevation: 52 ft
Nearby Weather Stations
Active Advisory: Wind Advisory Active Notice: Public Information Statement

Elev 52 ft 38.96 °N, 76.94 °W | Updated 3 seconds ago

Clear
Clear
25.8 °F
Feels Like 26 °F
N
2.0
Wind Variable Wind from WNW
Gusts 5.0 mph

Today
High -- | Low -- °F
--% Chance of Precip.
Yesterday
High -- | Low -- °F
Precip. -- in
Pressure 29.99 in
Visibility 10.0 miles
Clouds Clear
Windchill 26 °F
Dew Point 17 °F
Humidity 70%
Rainfall 0.00 in
Snow Depth Not available.
7:02 AM 5:42 PM
Waxing Crescent, 28% visible
METAR KCGS 130700Z AUTO 28003KT 10SM CLR M03/M08 A2999 RMK AO1
Pressure 29.99 in
Visibility 10.0 miles
Clouds Clear
Windchill 26 °F
Dew Point 17 °F
Humidity 70%
Rainfall 0.00 in
Snow Depth Not available.
7:02 AM 5:42 PM
Waxing Crescent, 28% visible
METAR KCGS 130700Z AUTO 28003KT 10SM CLR M03/M08 A2999 RMK AO1

10-Day Weather Forecast

Almanac

Astronomy

Feb. 13, 2016 Rise Set
Actual Time
Civil Twilight
Nautical Twilight
Astronomical Twilight
Moon
Length of Visible Light
Length of Day
Tomorrow will be .
, % of the Moon is Illuminated

Today's Extremes

State Highs State Lows

Community

WunderPhotos

Upload Photos

1,892,519 photos uploaded!

WunderBlog® & News

Nearby

Air Quality

  Air Quality AQ Index Pollutant
Not available.

Snow Depth

Station Depth Elevation

Earthquake Activity

City Distance Mag. Time & Date
Minimum magnitude displayed is 2.5.

Coastal Water Temperatures

Place Temperature

Stations

Nearby Weather Stations

Station Location Temp. Windchill Dew Point Humidity Wind Precip. Elev Updated Type
                   

Watches & Warnings

Wind Advisory
Issued: 11:51 PM EST Feb. 12, 2016 – National Weather Service

... Wind Advisory remains in effect from 3 am to 6 PM EST
Saturday...

* timing... late tonight through Saturday. Greatest wind threat
is Saturday morning through midday.

* Winds... northwest 20 to 30 mph with gusts around 50 mph.

* Impacts... scattered tree and power line damage. Difficulty
driving high profile vehicles.

Precautionary/preparedness actions...

A Wind Advisory means that wind gusts of 45 to 55 mph are
expected. Secure outdoor furniture and take care driving high
profile vehicles.